createdAt,value
2018-05-12T00:00:39.147Z,14.53
2018-05-12T00:03:06.658Z,12.70
2018-05-12T00:05:34.190Z,12.27
2018-05-12T00:08:01.705Z,10.77
2018-05-12T00:10:29.234Z,9.37
2018-05-12T00:12:56.845Z,9.10
2018-05-12T00:15:24.359Z,10.53
2018-05-12T00:17:51.879Z,9.33
2018-05-12T00:20:19.425Z,11.27
2018-05-12T00:22:46.973Z,19.30
2018-05-12T00:25:14.519Z,21.17
2018-05-12T00:27:42.099Z,16.67
2018-05-12T00:30:09.677Z,17.43
2018-05-12T00:32:37.255Z,18.33
2018-05-12T00:35:04.848Z,16.60
2018-05-12T00:37:32.388Z,18.10
2018-05-12T00:39:59.923Z,16.83
2018-05-12T00:42:27.504Z,17.87
2018-05-12T00:44:55.083Z,16.10
2018-05-12T00:47:22.647Z,17.37
2018-05-12T00:49:50.195Z,16.90
2018-05-12T00:52:17.714Z,18.30
2018-05-12T00:54:45.283Z,16.93
2018-05-12T00:57:12.799Z,21.03
2018-05-12T00:59:40.350Z,16.83
2018-05-12T01:02:07.911Z,19.77
2018-05-12T01:04:35.461Z,17.93
2018-05-12T01:07:03.058Z,17.80
2018-05-12T01:09:30.587Z,19.43
2018-05-12T01:11:58.171Z,18.07
2018-05-12T01:14:25.693Z,19.50
2018-05-12T01:16:53.234Z,17.53
2018-05-12T01:19:20.761Z,17.30
2018-05-12T01:21:48.264Z,19.03
2018-05-12T01:24:15.824Z,21.73
2018-05-12T01:26:43.364Z,20.30
2018-05-12T01:29:10.940Z,17.70
2018-05-12T01:31:38.465Z,18.60
2018-05-12T01:34:06.039Z,17.23
2018-05-12T01:36:33.570Z,15.83
2018-05-12T01:39:01.095Z,14.30
2018-05-12T01:41:28.619Z,16.70
2018-05-12T01:43:56.214Z,15.83
2018-05-12T01:46:23.777Z,15.33
2018-05-12T01:48:51.311Z,20.70
2018-05-12T01:51:18.875Z,18.47
2018-05-12T01:53:46.385Z,16.03
2018-05-12T01:56:13.928Z,14.33
2018-05-12T01:58:41.444Z,14.37
2018-05-12T02:01:08.960Z,15.17
2018-05-12T02:03:36.475Z,14.47
2018-05-12T02:06:03.998Z,13.70
2018-05-12T02:08:31.546Z,12.83
2018-05-12T02:10:59.078Z,11.30
2018-05-12T02:13:26.583Z,12.33
2018-05-12T02:15:54.095Z,12.23
2018-05-12T02:18:21.616Z,11.63
2018-05-12T02:20:49.140Z,9.70
2018-05-12T02:23:16.678Z,9.70
2018-05-12T02:25:44.196Z,11.47
2018-05-12T02:28:11.692Z,9.73
2018-05-12T02:30:39.271Z,9.83
2018-05-12T02:33:06.802Z,9.50
2018-05-12T02:35:34.333Z,8.80
2018-05-12T02:38:01.840Z,9.73
2018-05-12T02:40:29.392Z,10.63
2018-05-12T02:42:56.888Z,8.90
2018-05-12T02:45:24.397Z,9.00
2018-05-12T02:47:51.979Z,11.00
2018-05-12T02:50:19.520Z,9.37
2018-05-12T02:52:47.107Z,10.93
2018-05-12T02:55:14.935Z,10.67
2018-05-12T02:57:42.435Z,10.40
2018-05-12T03:00:09.999Z,11.27
2018-05-12T03:02:37.517Z,8.73
2018-05-12T03:05:05.036Z,8.90
2018-05-12T03:07:32.931Z,10.17
2018-05-12T03:10:00.477Z,9.27
2018-05-12T03:12:28.002Z,11.17
2018-05-12T03:14:55.521Z,10.90
2018-05-12T03:17:23.071Z,9.40
2018-05-12T03:19:50.574Z,8.60
2018-05-12T03:22:18.085Z,8.87
2018-05-12T03:24:45.639Z,8.90
2018-05-12T03:27:13.145Z,8.90
2018-05-12T03:29:40.748Z,9.50
2018-05-12T03:32:08.287Z,11.20
2018-05-12T03:34:35.868Z,9.87
2018-05-12T03:37:03.423Z,10.47
2018-05-12T03:39:30.926Z,11.90
2018-05-12T03:41:58.519Z,12.07
2018-05-12T03:44:26.023Z,11.13
2018-05-12T03:46:53.578Z,11.40
2018-05-12T03:49:21.135Z,15.13
2018-05-12T03:51:48.646Z,12.07
2018-05-12T03:54:16.200Z,11.63
2018-05-12T03:56:43.709Z,15.87
2018-05-12T03:59:11.228Z,13.63
2018-05-12T04:01:38.735Z,14.57
2018-05-12T04:04:06.254Z,14.60
2018-05-12T04:06:45.683Z,12.80
2018-05-12T04:09:25.029Z,11.70
2018-05-12T04:12:04.329Z,13.43
2018-05-12T04:14:31.875Z,12.13
2018-05-12T04:16:59.403Z,14.03
2018-05-12T04:19:26.902Z,10.70
2018-05-12T04:21:54.419Z,13.50
2018-05-12T04:24:21.987Z,11.90
2018-05-12T04:26:50.552Z,12.53
2018-05-12T04:29:18.105Z,11.73
2018-05-12T04:31:45.648Z,11.43
2018-05-12T04:34:13.164Z,12.37
2018-05-12T04:36:40.675Z,14.53
2018-05-12T04:39:08.197Z,15.00
2018-05-12T04:41:35.761Z,12.33
2018-05-12T04:44:03.284Z,12.83
2018-05-12T04:46:30.791Z,18.27
2018-05-12T04:48:58.335Z,13.43
2018-05-12T04:51:25.842Z,12.93
2018-05-12T04:53:53.353Z,11.87
2018-05-12T04:56:21.180Z,11.67
2018-05-12T04:58:48.767Z,16.47
2018-05-12T05:01:16.279Z,17.33
2018-05-12T05:03:43.898Z,15.63
2018-05-12T05:06:11.428Z,16.90
2018-05-12T05:08:38.967Z,11.87
2018-05-12T05:11:06.571Z,18.73
2018-05-12T05:13:34.097Z,14.60
2018-05-12T05:16:01.650Z,13.50
2018-05-12T05:18:29.177Z,16.67
2018-05-12T05:20:56.700Z,14.87
2018-05-12T05:23:24.219Z,14.37
2018-05-12T05:25:51.799Z,14.27
2018-05-12T05:28:19.375Z,15.10
2018-05-12T05:30:46.995Z,14.03
2018-05-12T05:33:14.533Z,13.27
2018-05-12T05:35:42.059Z,14.70
2018-05-12T05:38:09.608Z,13.20
2018-05-12T05:40:37.137Z,15.67
2018-05-12T05:43:04.710Z,15.53
2018-05-12T05:45:32.337Z,17.70
2018-05-12T05:47:59.875Z,15.63
2018-05-12T05:50:27.636Z,20.30
2018-05-12T05:52:55.203Z,14.80
2018-05-12T05:55:22.747Z,13.80
2018-05-12T05:57:50.290Z,15.20
2018-05-12T06:00:17.848Z,15.53
2018-05-12T06:02:45.351Z,17.07
2018-05-12T06:05:12.877Z,14.57
2018-05-12T06:07:40.390Z,15.00
2018-05-12T06:10:07.943Z,14.17
2018-05-12T06:12:35.556Z,12.80
2018-05-12T06:15:03.086Z,12.93
2018-05-12T06:17:30.635Z,18.40
2018-05-12T06:19:58.151Z,14.33
2018-05-12T06:22:25.661Z,16.17
2018-05-12T06:24:53.197Z,15.67
2018-05-12T06:27:20.751Z,12.73
2018-05-12T06:29:48.270Z,13.63
2018-05-12T06:32:15.799Z,13.00
2018-05-12T06:34:43.349Z,13.40
2018-05-12T06:37:10.878Z,12.13
2018-05-12T06:39:38.436Z,13.48
2018-05-12T06:42:05.971Z,11.90
2018-05-12T06:44:33.486Z,11.88
2018-05-12T06:47:01.008Z,13.57
2018-05-12T06:49:28.570Z,17.85
2018-05-12T06:51:56.265Z,16.65
2018-05-12T06:54:23.807Z,20.85
2018-05-12T06:56:51.323Z,23.05
2018-05-12T06:59:18.877Z,20.42
2018-05-12T07:01:46.390Z,19.10
2018-05-12T07:04:14.847Z,17.02
2018-05-12T07:06:42.388Z,16.27
2018-05-12T07:09:09.902Z,18.60
2018-05-12T07:11:38.385Z,15.13
2018-05-12T07:14:05.896Z,9.73
2018-05-12T07:16:33.399Z,10.48
2018-05-12T07:19:00.962Z,12.68
2018-05-12T07:21:28.471Z,12.07
2018-05-12T07:23:55.987Z,13.15
2018-05-12T07:26:23.520Z,14.85
2018-05-12T07:28:51.037Z,11.82
2018-05-12T07:31:18.610Z,11.25
2018-05-12T07:33:46.136Z,9.73
2018-05-12T07:36:13.670Z,11.52
2018-05-12T07:38:41.213Z,10.95
2018-05-12T07:41:08.797Z,11.40
2018-05-12T07:43:36.337Z,11.45
2018-05-12T07:46:04.137Z,13.38
2018-05-12T07:48:31.659Z,16.60
2018-05-12T07:50:59.194Z,12.85
2018-05-12T07:53:27.545Z,12.40
2018-05-12T07:55:55.083Z,13.80
2018-05-12T07:58:22.612Z,16.73
2018-05-12T08:00:50.115Z,9.90
2018-05-12T08:03:17.626Z,12.07
2018-05-12T08:05:45.158Z,8.98
2018-05-12T08:08:12.751Z,10.25
2018-05-12T08:10:40.532Z,8.43
2018-05-12T08:13:08.081Z,9.32
2018-05-12T08:15:35.632Z,8.30
2018-05-12T08:18:03.484Z,11.43
2018-05-12T08:20:31.051Z,13.27
2018-05-12T08:22:58.570Z,13.27
2018-05-12T08:25:26.104Z,9.82
2018-05-12T08:27:53.631Z,8.90
2018-05-12T08:30:21.148Z,10.65
2018-05-12T08:32:48.736Z,9.95
2018-05-12T08:35:16.239Z,9.25
2018-05-12T08:37:43.743Z,10.38
2018-05-12T08:40:11.298Z,9.48
2018-05-12T08:42:38.852Z,9.23
2018-05-12T08:45:06.399Z,8.70
2018-05-12T08:47:33.916Z,9.98
2018-05-12T08:50:01.429Z,6.45
2018-05-12T08:52:28.999Z,8.70
2018-05-12T08:54:57.378Z,13.35
2018-05-12T08:57:24.876Z,6.87
2018-05-12T08:59:52.384Z,6.65
2018-05-12T09:02:19.969Z,6.70
2018-05-12T09:04:48.569Z,6.75
2018-05-12T09:07:16.111Z,7.97
2018-05-12T09:09:43.655Z,13.90
2018-05-12T09:12:11.197Z,8.70
2018-05-12T09:14:38.736Z,9.45
2018-05-12T09:17:06.260Z,7.12
2018-05-12T09:19:33.781Z,7.80
2018-05-12T09:22:02.289Z,7.07
2018-05-12T09:24:29.830Z,6.60
2018-05-12T09:26:57.335Z,7.10
2018-05-12T09:29:24.857Z,8.20
2018-05-12T09:31:52.373Z,5.55
2018-05-12T09:34:19.942Z,6.07
2018-05-12T09:36:47.526Z,7.30
2018-05-12T09:39:15.040Z,6.75
2018-05-12T09:41:42.550Z,9.95
2018-05-12T09:44:10.284Z,7.18
2018-05-12T09:46:37.813Z,8.60
2018-05-12T09:49:05.368Z,7.40
2018-05-12T09:51:33.195Z,5.90
2018-05-12T09:54:00.715Z,8.07
2018-05-12T09:56:28.227Z,6.28
2018-05-12T09:58:55.733Z,7.07
2018-05-12T10:01:23.332Z,15.68
2018-05-12T10:03:51.555Z,5.50
2018-05-12T10:06:19.140Z,6.70
2018-05-12T10:08:46.651Z,5.65
2018-05-12T10:11:14.320Z,7.00
2018-05-12T10:13:41.794Z,6.87
2018-05-12T10:16:09.291Z,6.05
2018-05-12T10:18:36.795Z,4.75
2018-05-12T10:21:04.328Z,6.93
2018-05-12T10:23:32.114Z,6.57
2018-05-12T10:25:59.646Z,5.62
2018-05-12T10:28:27.153Z,5.10
2018-05-12T10:30:54.702Z,6.10
2018-05-12T10:33:22.311Z,5.72
2018-05-12T10:35:49.865Z,4.97
2018-05-12T10:38:17.381Z,5.25
2018-05-12T10:40:45.176Z,6.03
2018-05-12T10:43:12.709Z,5.60
2018-05-12T10:45:40.220Z,5.15
2018-05-12T10:48:07.773Z,5.45
2018-05-12T10:50:35.283Z,5.43
2018-05-12T10:53:02.861Z,5.57
2018-05-12T10:55:30.426Z,7.80
2018-05-12T10:57:57.957Z,11.45
2018-05-12T11:00:25.500Z,8.95
2018-05-12T11:02:53.020Z,7.12
2018-05-12T11:05:20.587Z,6.57
2018-05-12T11:07:48.139Z,9.20
2018-05-12T11:10:15.700Z,6.43
2018-05-12T11:12:43.255Z,5.78
2018-05-12T11:15:10.775Z,5.72
2018-05-12T11:17:38.407Z,5.25
2018-05-12T11:20:05.923Z,8.48
2018-05-12T11:22:33.476Z,5.05
2018-05-12T11:25:01.042Z,6.67
2018-05-12T11:27:28.564Z,8.00
2018-05-12T11:29:56.088Z,8.57
2018-05-12T11:32:23.613Z,5.67
2018-05-12T11:34:51.136Z,4.03
2018-05-12T11:37:18.694Z,4.33
2018-05-12T11:39:46.204Z,3.73
2018-05-12T11:42:13.731Z,3.40
2018-05-12T11:44:41.331Z,6.47
2018-05-12T11:47:08.803Z,7.07
2018-05-12T11:49:36.315Z,4.60
2018-05-12T11:52:03.857Z,5.67
2018-05-12T11:54:31.408Z,4.37
2018-05-12T11:56:58.920Z,3.37
2018-05-12T11:59:26.431Z,3.20
2018-05-12T12:01:53.929Z,5.73
2018-05-12T12:04:21.472Z,3.10
2018-05-12T12:06:48.976Z,6.00
2018-05-12T12:09:16.481Z,3.50
2018-05-12T12:11:44.845Z,4.93
2018-05-12T12:14:12.359Z,8.20
2018-05-12T12:16:39.878Z,4.60
2018-05-12T12:19:07.402Z,4.53
2018-05-12T12:21:35.958Z,5.13
2018-05-12T12:24:03.528Z,7.13
2018-05-12T12:26:31.050Z,4.47
2018-05-12T12:28:58.550Z,6.33
2018-05-12T12:31:26.053Z,5.97
2018-05-12T12:33:53.580Z,6.53
2018-05-12T12:36:21.082Z,5.40
2018-05-12T12:38:48.583Z,6.40
2018-05-12T12:41:16.156Z,6.60
2018-05-12T12:43:43.721Z,6.70
2018-05-12T12:46:11.230Z,7.00
2018-05-12T12:48:38.752Z,7.90
2018-05-12T12:51:06.247Z,9.03
2018-05-12T12:53:34.016Z,11.47
2018-05-12T12:56:01.519Z,7.27
2018-05-12T12:58:29.073Z,12.77
2018-05-12T13:00:56.582Z,7.77
2018-05-12T13:03:24.104Z,7.43
2018-05-12T13:05:51.611Z,4.80
2018-05-12T13:08:19.150Z,5.13
2018-05-12T13:10:46.655Z,7.80
2018-05-12T13:13:14.167Z,8.23
2018-05-12T13:15:41.692Z,11.00
2018-05-12T13:18:09.225Z,7.60
2018-05-12T13:20:36.836Z,6.83
2018-05-12T13:23:04.380Z,6.73
2018-05-12T13:25:31.882Z,7.97
2018-05-12T13:28:00.301Z,8.23
2018-05-12T13:30:28.227Z,7.40
2018-05-12T13:32:55.728Z,7.67
2018-05-12T13:35:23.219Z,5.53
2018-05-12T13:37:50.721Z,8.77
2018-05-12T13:40:18.302Z,7.07
2018-05-12T13:42:45.748Z,5.53
2018-05-12T13:45:13.247Z,6.77
2018-05-12T13:47:40.758Z,5.00
2018-05-12T13:50:08.299Z,6.33
2018-05-12T13:52:35.823Z,16.07
2018-05-12T13:55:03.346Z,6.40
2018-05-12T13:57:30.855Z,7.40
2018-05-12T13:59:58.370Z,4.50
2018-05-12T14:02:25.934Z,9.00
2018-05-12T14:04:53.824Z,12.90
2018-05-12T14:07:21.335Z,9.40
2018-05-12T14:09:48.875Z,12.23
2018-05-12T14:12:16.399Z,8.30
2018-05-12T14:14:43.983Z,5.60
2018-05-12T14:17:11.498Z,6.43
2018-05-12T14:19:39.076Z,7.77
2018-05-12T14:22:06.575Z,8.43
2018-05-12T14:24:34.171Z,12.83
2018-05-12T14:27:01.708Z,10.70
2018-05-12T14:29:29.235Z,7.53
2018-05-12T14:31:56.762Z,8.23
2018-05-12T14:34:24.271Z,6.97
2018-05-12T14:36:52.054Z,8.83
2018-05-12T14:39:19.587Z,11.80
2018-05-12T14:41:47.153Z,8.27
2018-05-12T14:44:14.695Z,8.43
2018-05-12T14:46:42.249Z,6.13
2018-05-12T14:49:09.805Z,5.60
2018-05-12T14:51:37.358Z,5.60
2018-05-12T14:54:04.935Z,5.57
2018-05-12T14:56:32.505Z,5.77
2018-05-12T14:59:00.041Z,5.43
2018-05-12T15:01:27.595Z,5.40
2018-05-12T15:03:55.161Z,8.40
2018-05-12T15:06:22.705Z,4.10
2018-05-12T15:08:50.235Z,5.40
2018-05-12T15:11:18.236Z,6.50
2018-05-12T15:13:45.901Z,8.27
2018-05-12T15:16:13.497Z,8.10
2018-05-12T15:18:41.023Z,8.10
2018-05-12T15:21:08.575Z,13.80
2018-05-12T15:23:36.085Z,6.07
2018-05-12T15:26:04.110Z,6.13
2018-05-12T15:28:31.930Z,15.37
2018-05-12T15:30:59.443Z,11.37
2018-05-12T15:33:26.943Z,6.13
2018-05-12T15:35:54.459Z,4.37
2018-05-12T15:38:22.021Z,5.27
2018-05-12T15:40:49.526Z,8.13
2018-05-12T15:43:17.090Z,8.13
2018-05-12T15:45:47.991Z,7.70
2018-05-12T15:48:15.533Z,5.27
2018-05-12T15:50:43.051Z,6.50
2018-05-12T15:53:10.579Z,5.20
2018-05-12T15:55:38.139Z,8.23
2018-05-12T15:58:05.667Z,7.70
2018-05-12T16:00:33.240Z,4.53
2018-05-12T16:03:01.088Z,9.83
2018-05-12T16:05:28.587Z,7.60
2018-05-12T16:07:56.087Z,5.33
2018-05-12T16:10:23.909Z,8.63
2018-05-12T16:12:51.469Z,6.87
2018-05-12T16:15:18.982Z,12.37
2018-05-12T16:17:46.560Z,10.80
2018-05-12T16:20:14.078Z,9.50
2018-05-12T16:22:41.583Z,7.47
2018-05-12T16:25:09.093Z,7.30
2018-05-12T16:27:36.636Z,7.60
2018-05-12T16:30:05.791Z,11.00
2018-05-12T16:32:33.295Z,6.97
2018-05-12T16:35:00.832Z,10.27
2018-05-12T16:37:28.430Z,13.63
2018-05-12T16:39:55.914Z,13.17
2018-05-12T16:42:23.594Z,14.00
2018-05-12T16:44:51.102Z,11.13
2018-05-12T16:47:18.643Z,14.83
2018-05-12T16:49:46.162Z,9.30
2018-05-12T16:52:13.660Z,7.50
2018-05-12T16:54:41.156Z,8.50
2018-05-12T16:57:08.659Z,9.50
2018-05-12T16:59:36.190Z,8.53
2018-05-12T17:02:03.710Z,7.87
2018-05-12T17:04:31.367Z,17.13
2018-05-12T17:06:58.868Z,9.90
2018-05-12T17:09:26.412Z,14.60
2018-05-12T17:11:53.921Z,11.23
2018-05-12T17:14:21.440Z,9.23
2018-05-12T17:16:48.975Z,7.53
2018-05-12T17:19:16.475Z,11.47
2018-05-12T17:21:43.998Z,7.20
2018-05-12T17:24:11.495Z,6.47
2018-05-12T17:26:39.020Z,9.70
2018-05-12T17:29:06.527Z,8.67
2018-05-12T17:31:34.028Z,8.20
2018-05-12T17:34:01.545Z,11.37
2018-05-12T17:36:29.056Z,8.57
2018-05-12T17:38:56.560Z,7.60
2018-05-12T17:41:24.084Z,7.73
2018-05-12T17:43:51.587Z,10.70
2018-05-12T17:46:19.098Z,11.37
2018-05-12T17:48:46.607Z,9.33
2018-05-12T17:51:14.107Z,9.67
2018-05-12T17:53:44.502Z,10.03
2018-05-12T17:56:12.052Z,12.30
2018-05-12T17:58:39.560Z,14.33
2018-05-12T18:01:07.068Z,20.07
2018-05-12T18:03:34.591Z,13.97
2018-05-12T18:06:02.139Z,20.70
2018-05-12T18:08:29.650Z,18.97
2018-05-12T18:10:57.151Z,14.37
2018-05-12T18:13:24.705Z,16.27
2018-05-12T18:15:52.216Z,14.90
2018-05-12T18:18:20.753Z,12.77
2018-05-12T18:20:48.280Z,10.90
2018-05-12T18:23:15.838Z,12.57
2018-05-12T18:25:43.346Z,13.30
2018-05-12T18:28:10.871Z,13.20
2018-05-12T18:30:38.384Z,14.40
2018-05-12T18:33:05.909Z,15.47
2018-05-12T18:35:33.427Z,17.17
2018-05-12T18:38:00.950Z,16.10
2018-05-12T18:40:28.468Z,12.83
2018-05-12T18:42:56.034Z,9.80
2018-05-12T18:45:23.523Z,9.77
2018-05-12T18:47:51.064Z,8.03
2018-05-12T18:50:18.586Z,8.93
2018-05-12T18:52:46.137Z,11.70
2018-05-12T18:55:13.639Z,9.40
2018-05-12T18:57:41.135Z,7.33
2018-05-12T19:00:08.672Z,7.73
2018-05-12T19:02:36.197Z,8.57
2018-05-12T19:05:03.708Z,8.63
2018-05-12T19:07:31.290Z,8.60
2018-05-12T19:09:58.843Z,10.97
2018-05-12T19:12:26.461Z,7.70
2018-05-12T19:14:54.001Z,8.20
2018-05-12T19:17:21.531Z,8.10
2018-05-12T19:19:49.088Z,13.00
2018-05-12T19:22:16.668Z,10.63
2018-05-12T19:24:44.469Z,8.60
2018-05-12T19:27:11.971Z,8.37
2018-05-12T19:29:39.508Z,7.53
2018-05-12T19:32:07.019Z,10.50
2018-05-12T19:34:34.568Z,10.23
2018-05-12T19:37:02.109Z,9.10
2018-05-12T19:39:29.628Z,9.50
2018-05-12T19:41:57.169Z,10.53
2018-05-12T19:44:24.682Z,10.27
2018-05-12T19:46:52.229Z,12.93
2018-05-12T19:49:19.737Z,10.67
2018-05-12T19:51:47.253Z,12.47
2018-05-12T19:54:14.760Z,11.40
2018-05-12T19:56:42.277Z,11.77
2018-05-12T19:59:09.778Z,10.30
2018-05-12T20:01:37.280Z,8.23
2018-05-12T20:04:04.820Z,9.33
2018-05-12T20:06:32.327Z,10.07
2018-05-12T20:08:59.884Z,10.87
2018-05-12T20:11:27.409Z,11.93
2018-05-12T20:13:54.919Z,12.13
2018-05-12T20:16:22.431Z,12.10
2018-05-12T20:18:50.728Z,14.07
2018-05-12T20:21:18.282Z,13.77
2018-05-12T20:23:45.795Z,17.33
2018-05-12T20:26:13.318Z,15.20
2018-05-12T20:28:41.174Z,17.10
2018-05-12T20:31:08.799Z,17.33
2018-05-12T20:33:36.286Z,19.50
2018-05-12T20:36:03.843Z,17.67
2018-05-12T20:38:31.390Z,16.63
2018-05-12T20:40:58.907Z,18.23
2018-05-12T20:43:26.420Z,19.40
2018-05-12T20:45:53.923Z,18.27
2018-05-12T20:48:21.436Z,18.47
2018-05-12T20:50:48.999Z,20.67
2018-05-12T20:53:16.508Z,21.47
2018-05-12T20:55:44.031Z,19.30
2018-05-12T20:58:11.552Z,19.67
2018-05-12T21:00:39.099Z,21.43
2018-05-12T21:03:06.694Z,21.13
2018-05-12T21:05:34.136Z,19.70
2018-05-12T21:08:01.707Z,19.97
2018-05-12T21:10:29.228Z,21.60
2018-05-12T21:12:56.770Z,24.57
2018-05-12T21:15:24.292Z,24.87
2018-05-12T21:17:51.809Z,26.30
2018-05-12T21:20:19.332Z,26.67
2018-05-12T21:22:46.861Z,25.27
2018-05-12T21:25:14.407Z,24.30
2018-05-12T21:27:41.922Z,23.00
2018-05-12T21:30:09.469Z,22.83
2018-05-12T21:32:37.252Z,21.13
2018-05-12T21:35:04.760Z,22.80
2018-05-12T21:37:32.323Z,22.80
2018-05-12T21:39:59.831Z,21.73
2018-05-12T21:42:27.350Z,21.90
2018-05-12T21:44:55.794Z,20.33
2018-05-12T21:47:23.311Z,18.87
2018-05-12T21:49:50.832Z,19.80
2018-05-12T21:52:18.343Z,20.27
2018-05-12T21:54:45.848Z,19.90
2018-05-12T21:57:13.368Z,18.77
2018-05-12T21:59:40.927Z,17.63
2018-05-12T22:02:08.445Z,17.60
2018-05-12T22:04:36.006Z,15.50
2018-05-12T22:07:03.531Z,15.50
2018-05-12T22:09:31.036Z,12.77
2018-05-12T22:11:58.569Z,11.30
2018-05-12T22:14:26.086Z,11.07
2018-05-12T22:16:53.599Z,11.93
2018-05-12T22:19:21.132Z,11.80
2018-05-12T22:21:48.685Z,11.60
2018-05-12T22:24:16.195Z,11.50
2018-05-12T22:26:43.717Z,11.83
2018-05-12T22:29:11.243Z,13.47
2018-05-12T22:31:38.807Z,13.07
2018-05-12T22:34:06.332Z,16.00
2018-05-12T22:36:33.833Z,14.77
2018-05-12T22:39:01.387Z,16.20
2018-05-12T22:41:28.894Z,14.50
2018-05-12T22:43:56.409Z,15.23
2018-05-12T22:46:23.941Z,16.13
2018-05-12T22:48:51.945Z,14.00
2018-05-12T22:51:19.518Z,16.33
2018-05-12T22:53:47.041Z,15.67
2018-05-12T22:56:14.551Z,14.60
2018-05-12T22:58:42.067Z,12.77
2018-05-12T23:01:09.585Z,13.03
2018-05-12T23:03:37.091Z,12.60
2018-05-12T23:06:04.624Z,11.33
2018-05-12T23:08:32.240Z,11.90
2018-05-12T23:10:59.767Z,13.80
2018-05-12T23:13:27.293Z,13.73
2018-05-12T23:15:54.807Z,14.83
2018-05-12T23:18:22.403Z,15.53
2018-05-12T23:20:49.944Z,16.67
2018-05-12T23:23:17.462Z,16.93
2018-05-12T23:25:44.971Z,18.00
2018-05-12T23:28:12.484Z,20.13
2018-05-12T23:30:40.049Z,23.70
2018-05-12T23:33:07.596Z,26.77
2018-05-12T23:35:35.128Z,25.80
2018-05-12T23:38:02.702Z,24.53
2018-05-12T23:40:30.291Z,26.13
2018-05-12T23:42:57.861Z,24.90
2018-05-12T23:45:25.443Z,26.53
2018-05-12T23:47:52.979Z,23.60
2018-05-12T23:50:20.512Z,23.33
2018-05-12T23:52:48.061Z,23.90
2018-05-12T23:55:15.633Z,22.50
2018-05-12T23:57:43.174Z,24.83
